createdAt,value
2022-09-24T00:02:18.247Z,12.48
2022-09-24T00:07:21.085Z,12.73
2022-09-24T00:12:23.465Z,12.02
2022-09-24T00:17:25.947Z,11.48
2022-09-24T00:22:28.366Z,11.38
2022-09-24T00:27:30.778Z,12.65
2022-09-24T00:32:33.283Z,11.75
2022-09-24T00:37:35.657Z,12.50
2022-09-24T00:42:38.116Z,11.88
2022-09-24T00:47:42.175Z,11.50
2022-09-24T00:52:49.943Z,11.52
2022-09-24T00:57:57.761Z,12.38
2022-09-24T01:03:10.620Z,12.32
2022-09-24T01:08:14.658Z,12.07
2022-09-24T01:13:35.152Z,12.05
2022-09-24T01:18:58.128Z,12.10
2022-09-24T01:24:19.441Z,12.82
2022-09-24T01:29:49.840Z,11.70
2022-09-24T01:35:30.830Z,11.18
2022-09-24T01:40:33.434Z,11.73
2022-09-24T01:45:38.726Z,12.02
2022-09-24T01:50:49.168Z,11.80
2022-09-24T01:55:58.052Z,11.33
2022-09-24T02:01:10.708Z,11.52
2022-09-24T02:06:18.098Z,11.18
2022-09-24T02:11:24.531Z,12.32
2022-09-24T02:16:50.077Z,12.05
2022-09-24T02:21:52.761Z,12.15
2022-09-24T02:26:55.421Z,11.60
2022-09-24T02:31:59.822Z,11.55
2022-09-24T02:37:14.186Z,11.00
2022-09-24T02:42:19.324Z,11.40
2022-09-24T02:47:21.724Z,11.02
2022-09-24T02:52:24.186Z,11.88
2022-09-24T02:57:26.604Z,11.63
2022-09-24T03:02:29.129Z,11.15
2022-09-24T03:07:31.626Z,11.02
2022-09-24T03:12:34.084Z,11.40
2022-09-24T03:17:36.931Z,11.43
2022-09-24T03:22:39.339Z,11.80
2022-09-24T03:27:41.704Z,12.52
2022-09-24T03:32:44.171Z,10.88
2022-09-24T03:37:49.225Z,12.38
2022-09-24T03:42:51.830Z,11.05
2022-09-24T03:47:54.863Z,11.98
2022-09-24T03:52:57.290Z,11.35
2022-09-24T03:57:59.650Z,12.07
2022-09-24T04:03:02.186Z,11.20
2022-09-24T04:08:07.795Z,11.90
2022-09-24T04:13:10.148Z,11.73
2022-09-24T04:18:12.574Z,11.10
2022-09-24T04:23:15.426Z,11.68
2022-09-24T04:28:18.320Z,11.13
2022-09-24T04:33:20.699Z,11.20
2022-09-24T04:38:26.257Z,11.00
2022-09-24T04:43:28.958Z,10.98
2022-09-24T04:48:31.994Z,11.50
2022-09-24T04:53:36.747Z,11.18
2022-09-24T04:58:39.723Z,10.88
2022-09-24T05:03:42.175Z,11.18
2022-09-24T05:08:44.528Z,10.88
2022-09-24T05:13:47.120Z,12.05
2022-09-24T05:18:49.568Z,10.15
2022-09-24T05:23:51.933Z,10.95
2022-09-24T05:28:54.494Z,10.15
2022-09-24T05:33:57.556Z,10.57
2022-09-24T05:38:59.888Z,10.48
2022-09-24T05:44:02.811Z,10.75
2022-09-24T05:49:05.331Z,10.27
2022-09-24T05:54:07.835Z,10.52
2022-09-24T05:59:10.562Z,10.63
2022-09-24T06:04:13.120Z,10.73
2022-09-24T06:09:15.502Z,10.23
2022-09-24T06:14:17.894Z,10.60
2022-09-24T06:19:20.523Z,10.20
2022-09-24T06:24:25.968Z,10.77
2022-09-24T06:29:32.160Z,10.90
2022-09-24T06:34:35.467Z,10.85
2022-09-24T06:39:40.790Z,10.63
2022-09-24T06:44:43.319Z,10.55
2022-09-24T06:49:45.918Z,11.40
2022-09-24T06:54:48.373Z,10.93
2022-09-24T06:59:51.732Z,10.70
2022-09-24T07:04:54.189Z,11.13
2022-09-24T07:09:57.706Z,10.15
2022-09-24T07:15:03.183Z,10.18
2022-09-24T07:20:06.037Z,10.15
2022-09-24T07:25:10.603Z,10.45
2022-09-24T07:30:13.288Z,10.68
2022-09-24T07:35:15.732Z,10.25
2022-09-24T07:40:18.343Z,9.77
2022-09-24T07:45:21.503Z,9.15
2022-09-24T07:50:23.968Z,9.73
2022-09-24T07:55:26.766Z,9.02
2022-09-24T08:00:29.194Z,9.00
2022-09-24T08:05:33.079Z,9.50
2022-09-24T08:10:35.498Z,8.15
2022-09-24T08:15:37.967Z,8.48
2022-09-24T08:20:40.536Z,9.52
2022-09-24T08:25:42.941Z,8.52
2022-09-24T08:30:45.563Z,7.75
2022-09-24T08:35:48.043Z,8.15
2022-09-24T08:40:55.058Z,8.10
2022-09-24T08:46:20.860Z,9.07
2022-09-24T08:51:24.492Z,8.80
2022-09-24T08:56:34.079Z,8.55
2022-09-24T09:01:40.015Z,8.85
2022-09-24T09:06:50.184Z,9.07
2022-09-24T09:12:05.835Z,7.90
2022-09-24T09:17:43.057Z,8.30
2022-09-24T09:22:48.998Z,7.45
2022-09-24T09:27:57.398Z,8.13
2022-09-24T09:33:23.722Z,7.20
2022-09-24T09:38:51.442Z,8.13
2022-09-24T09:44:10.933Z,8.02
2022-09-24T09:49:14.480Z,8.10
2022-09-24T10:05:55.661Z,7.53
2022-09-24T10:11:00.488Z,8.00
2022-09-24T10:16:08.575Z,7.50
2022-09-24T10:21:15.005Z,7.43
2022-09-24T10:26:17.729Z,7.15
2022-09-24T10:31:24.074Z,6.78
2022-09-24T10:36:30.019Z,7.47
2022-09-24T10:41:32.902Z,8.63
2022-09-24T10:46:53.712Z,8.07
2022-09-24T10:52:17.555Z,7.32
2022-09-24T10:57:25.310Z,7.75
2022-09-24T11:02:42.860Z,6.57
2022-09-24T11:07:56.695Z,6.82
2022-09-24T11:13:24.069Z,6.32
2022-09-24T11:18:41.685Z,6.25
2022-09-24T11:23:59.392Z,7.60
2022-09-24T11:29:42.804Z,6.80
2022-09-24T11:34:55.015Z,4.72
2022-09-24T11:40:17.684Z,5.88
2022-09-24T11:45:36.256Z,7.00
2022-09-24T11:50:57.458Z,7.53
2022-09-24T11:56:09.443Z,6.43
2022-09-24T12:01:25.244Z,6.20
2022-09-24T12:06:42.234Z,7.03
2022-09-24T12:11:49.570Z,6.07
2022-09-24T12:17:09.469Z,6.55
2022-09-24T12:22:13.357Z,6.28
2022-09-24T12:27:35.555Z,5.47
2022-09-24T12:33:00.299Z,5.13
2022-09-24T12:38:28.012Z,3.75
2022-09-24T12:43:39.994Z,3.33
2022-09-24T12:48:44.930Z,3.28
2022-09-24T12:53:57.294Z,2.63
2022-09-24T12:58:59.790Z,2.92
2022-09-24T13:04:05.948Z,3.28
2022-09-24T13:09:38.342Z,3.40
2022-09-24T13:14:43.398Z,3.35
2022-09-24T13:19:47.525Z,3.60
2022-09-24T13:25:15.539Z,3.00
2022-09-24T13:30:37.052Z,4.03
2022-09-24T13:35:47.947Z,4.05
2022-09-24T13:40:56.955Z,4.70
2022-09-24T13:46:00.227Z,4.38
2022-09-24T13:51:05.434Z,3.72
2022-09-24T13:56:14.781Z,4.13
2022-09-24T14:01:27.154Z,4.28
2022-09-24T14:06:39.096Z,3.85
2022-09-24T14:11:50.798Z,3.83
2022-09-24T14:16:56.590Z,3.63
2022-09-24T14:21:59.544Z,4.00
2022-09-24T14:27:06.411Z,3.95
2022-09-24T14:32:23.345Z,4.60
2022-09-24T14:37:33.137Z,3.92
2022-09-24T14:42:44.170Z,3.85
2022-09-24T14:47:46.757Z,4.25
2022-09-24T14:52:56.925Z,4.20
2022-09-24T14:57:59.334Z,4.38
2022-09-24T15:03:11.813Z,4.15
2022-09-24T15:08:28.198Z,3.78
2022-09-24T15:13:35.857Z,3.60
2022-09-24T15:18:38.368Z,4.03
2022-09-24T15:23:40.755Z,3.85
2022-09-24T15:28:43.191Z,4.18
2022-09-24T15:33:45.718Z,3.85
2022-09-24T15:38:52.646Z,3.80
2022-09-24T15:43:59.229Z,4.03
2022-09-24T15:49:01.727Z,3.83
2022-09-24T15:54:04.385Z,4.03
2022-09-24T15:59:14.617Z,3.90
2022-09-24T16:04:17.392Z,3.80
2022-09-24T16:09:19.750Z,3.75
2022-09-24T16:14:22.234Z,3.47
2022-09-24T16:19:24.782Z,4.43
2022-09-24T16:24:27.458Z,4.70
2022-09-24T16:29:29.815Z,4.15
2022-09-24T16:34:33.056Z,4.95
2022-09-24T16:39:35.424Z,4.35
2022-09-24T16:44:37.871Z,4.80
2022-09-24T16:49:40.321Z,4.80
2022-09-24T16:54:43.026Z,4.55
2022-09-24T16:59:45.586Z,4.95
2022-09-24T17:04:48.168Z,4.43
2022-09-24T17:10:09.174Z,4.40
2022-09-24T17:15:14.855Z,4.35
2022-09-24T17:20:18.366Z,5.50
2022-09-24T17:25:20.803Z,5.28
2022-09-24T17:30:23.488Z,5.60
2022-09-24T17:35:26.491Z,4.75
2022-09-24T17:40:28.970Z,5.10
2022-09-24T17:45:31.443Z,5.50
2022-09-24T17:50:33.980Z,5.57
2022-09-24T17:55:37.503Z,5.53
2022-09-24T18:00:40.114Z,5.70
2022-09-24T18:05:43.370Z,5.78
2022-09-24T18:10:45.813Z,6.40
2022-09-24T18:15:48.584Z,6.90
2022-09-24T18:20:56.828Z,7.55
2022-09-24T18:26:16.184Z,6.97
2022-09-24T18:31:20.494Z,7.70
2022-09-24T18:36:25.643Z,8.18
2022-09-24T18:41:30.675Z,7.80
2022-09-24T18:46:33.959Z,8.05
2022-09-24T18:51:37.882Z,8.40
2022-09-24T18:56:40.766Z,8.63
2022-09-24T19:01:47.173Z,7.82
2022-09-24T19:06:50.897Z,9.32
2022-09-24T19:11:53.466Z,9.02
2022-09-24T19:16:57.099Z,9.27
2022-09-24T19:21:59.584Z,8.00
2022-09-24T19:27:02.082Z,8.98
2022-09-24T19:32:08.536Z,8.80
2022-09-24T19:37:10.966Z,9.02
2022-09-24T19:42:13.353Z,9.25
2022-09-24T19:47:15.826Z,9.70
2022-09-24T19:52:21.263Z,9.05
2022-09-24T19:57:23.725Z,9.90
2022-09-24T20:02:26.409Z,9.63
2022-09-24T20:07:29.114Z,10.10
2022-09-24T20:12:34.879Z,10.63
2022-09-24T20:17:40.545Z,9.73
2022-09-24T20:22:43.481Z,10.77
2022-09-24T20:27:51.542Z,10.00
2022-09-24T20:32:54.110Z,11.20
2022-09-24T20:37:56.570Z,11.25
2022-09-24T20:42:59.143Z,11.00
2022-09-24T20:48:01.758Z,11.27
2022-09-24T20:53:04.153Z,10.77
2022-09-24T20:58:07.659Z,11.45
2022-09-24T21:03:25.872Z,11.48
2022-09-24T21:08:40.801Z,11.50
2022-09-24T21:13:45.881Z,12.88
2022-09-24T21:18:49.915Z,12.43
2022-09-24T21:23:54.347Z,11.95
2022-09-24T21:29:00.365Z,12.75
2022-09-24T21:34:03.757Z,12.88
2022-09-24T21:39:12.978Z,12.50
2022-09-24T21:44:19.888Z,12.43
2022-09-24T21:49:25.558Z,13.13
2022-09-24T21:54:27.940Z,11.73
2022-09-24T21:59:48.595Z,11.88
2022-09-24T22:04:51.018Z,13.40
2022-09-24T22:09:53.556Z,21.98
2022-09-24T22:14:56.127Z,19.50
2022-09-24T22:19:58.627Z,19.33
2022-09-24T22:25:01.115Z,18.98
2022-09-24T22:30:04.221Z,18.50
2022-09-24T22:35:25.656Z,18.73
2022-09-24T22:40:28.618Z,18.35
2022-09-24T22:45:30.968Z,17.88
2022-09-24T22:50:33.303Z,17.92
2022-09-24T22:55:35.794Z,17.67
2022-09-24T23:00:38.278Z,18.10
2022-09-24T23:05:40.697Z,17.48
2022-09-24T23:10:43.110Z,17.95
2022-09-24T23:15:45.740Z,18.10
2022-09-24T23:20:48.103Z,18.30
2022-09-24T23:25:50.517Z,17.45
2022-09-24T23:30:59.837Z,17.92
2022-09-24T23:36:03.413Z,17.13
2022-09-24T23:41:07.325Z,17.13
2022-09-24T23:46:11.179Z,16.75
2022-09-24T23:51:14.060Z,15.77
2022-09-24T23:56:16.475Z,16.98
